sensor_id;sensor_type;location;lat;lon;timestamp;P1;durP1;ratioP1;P2;durP2;ratioP2
11524;SDS011;5819;49.648;8.330;2022-07-29T00:00:22;4.38;;;1.98;;
11524;SDS011;5819;49.648;8.330;2022-07-29T00:02:51;7.22;;;2.00;;
11524;SDS011;5819;49.648;8.330;2022-07-29T00:05:19;8.23;;;2.08;;
11524;SDS011;5819;49.648;8.330;2022-07-29T00:07:47;5.63;;;1.63;;
11524;SDS011;5819;49.648;8.330;2022-07-29T00:10:15;5.60;;;1.98;;
11524;SDS011;5819;49.648;8.330;2022-07-29T00:12:45;5.35;;;1.77;;
11524;SDS011;5819;49.648;8.330;2022-07-29T00:15:13;6.38;;;1.80;;
11524;SDS011;5819;49.648;8.330;2022-07-29T00:17:41;3.90;;;1.67;;
11524;SDS011;5819;49.648;8.330;2022-07-29T00:20:09;6.75;;;1.98;;
11524;SDS011;5819;49.648;8.330;2022-07-29T00:22:38;7.35;;;2.08;;
11524;SDS011;5819;49.648;8.330;2022-07-29T00:25:06;9.50;;;2.10;;
11524;SDS011;5819;49.648;8.330;2022-07-29T00:27:35;8.48;;;2.28;;
11524;SDS011;5819;49.648;8.330;2022-07-29T00:30:06;4.88;;;1.77;;
11524;SDS011;5819;49.648;8.330;2022-07-29T00:32:35;4.97;;;1.48;;
11524;SDS011;5819;49.648;8.330;2022-07-29T00:35:03;6.47;;;1.83;;
11524;SDS011;5819;49.648;8.330;2022-07-29T00:37:52;5.63;;;2.03;;
11524;SDS011;5819;49.648;8.330;2022-07-29T00:40:20;6.10;;;1.88;;
11524;SDS011;5819;49.648;8.330;2022-07-29T00:42:49;4.20;;;1.63;;
11524;SDS011;5819;49.648;8.330;2022-07-29T00:45:19;7.03;;;1.80;;
11524;SDS011;5819;49.648;8.330;2022-07-29T00:47:48;5.00;;;1.67;;
11524;SDS011;5819;49.648;8.330;2022-07-29T00:50:16;4.18;;;1.85;;
11524;SDS011;5819;49.648;8.330;2022-07-29T00:52:45;5.72;;;1.88;;
11524;SDS011;5819;49.648;8.330;2022-07-29T00:55:14;4.35;;;1.60;;
11524;SDS011;5819;49.648;8.330;2022-07-29T00:57:43;4.68;;;1.75;;
11524;SDS011;5819;49.648;8.330;2022-07-29T01:00:13;2.78;;;1.65;;
11524;SDS011;5819;49.648;8.330;2022-07-29T01:02:45;4.72;;;1.77;;
11524;SDS011;5819;49.648;8.330;2022-07-29T01:05:15;3.92;;;1.90;;
11524;SDS011;5819;49.648;8.330;2022-07-29T01:07:45;3.42;;;1.95;;
11524;SDS011;5819;49.648;8.330;2022-07-29T01:10:16;4.30;;;1.60;;
11524;SDS011;5819;49.648;8.330;2022-07-29T01:12:47;4.18;;;1.77;;
11524;SDS011;5819;49.648;8.330;2022-07-29T01:15:16;4.70;;;1.60;;
11524;SDS011;5819;49.648;8.330;2022-07-29T01:17:48;3.88;;;1.92;;
11524;SDS011;5819;49.648;8.330;2022-07-29T01:20:24;4.22;;;1.65;;
11524;SDS011;5819;49.648;8.330;2022-07-29T01:23:01;4.25;;;1.50;;
11524;SDS011;5819;49.648;8.330;2022-07-29T01:25:46;4.43;;;1.85;;
11524;SDS011;5819;49.648;8.330;2022-07-29T01:28:36;6.63;;;1.98;;
11524;SDS011;5819;49.648;8.330;2022-07-29T01:31:11;4.45;;;1.83;;
11524;SDS011;5819;49.648;8.330;2022-07-29T01:33:52;3.75;;;1.75;;
11524;SDS011;5819;49.648;8.330;2022-07-29T01:36:27;3.72;;;1.75;;
11524;SDS011;5819;49.648;8.330;2022-07-29T01:39:02;3.40;;;1.50;;
11524;SDS011;5819;49.648;8.330;2022-07-29T01:41:36;4.75;;;1.65;;
11524;SDS011;5819;49.648;8.330;2022-07-29T01:44:11;3.90;;;1.70;;
11524;SDS011;5819;49.648;8.330;2022-07-29T01:46:44;5.65;;;1.80;;
11524;SDS011;5819;49.648;8.330;2022-07-29T01:49:20;4.50;;;1.85;;
11524;SDS011;5819;49.648;8.330;2022-07-29T01:51:52;4.07;;;1.70;;
11524;SDS011;5819;49.648;8.330;2022-07-29T01:54:26;6.95;;;1.67;;
11524;SDS011;5819;49.648;8.330;2022-07-29T01:56:59;8.48;;;4.10;;
11524;SDS011;5819;49.648;8.330;2022-07-29T01:59:30;6.20;;;1.70;;
11524;SDS011;5819;49.648;8.330;2022-07-29T02:02:01;3.35;;;1.70;;
11524;SDS011;5819;49.648;8.330;2022-07-29T02:04:30;11.15;;;2.03;;
11524;SDS011;5819;49.648;8.330;2022-07-29T02:07:02;6.70;;;1.95;;
11524;SDS011;5819;49.648;8.330;2022-07-29T02:09:34;4.70;;;1.90;;
11524;SDS011;5819;49.648;8.330;2022-07-29T02:12:04;3.65;;;1.98;;
11524;SDS011;5819;49.648;8.330;2022-07-29T02:14:36;7.82;;;2.25;;
11524;SDS011;5819;49.648;8.330;2022-07-29T02:17:12;5.07;;;2.05;;
11524;SDS011;5819;49.648;8.330;2022-07-29T02:19:44;4.82;;;1.90;;
11524;SDS011;5819;49.648;8.330;2022-07-29T02:22:14;4.80;;;2.00;;
11524;SDS011;5819;49.648;8.330;2022-07-29T02:24:46;5.40;;;2.00;;
11524;SDS011;5819;49.648;8.330;2022-07-29T02:27:16;9.43;;;2.40;;
11524;SDS011;5819;49.648;8.330;2022-07-29T02:29:49;5.07;;;2.08;;
11524;SDS011;5819;49.648;8.330;2022-07-29T02:32:18;4.30;;;1.92;;
11524;SDS011;5819;49.648;8.330;2022-07-29T02:34:49;6.57;;;1.92;;
11524;SDS011;5819;49.648;8.330;2022-07-29T02:37:19;5.13;;;2.25;;
11524;SDS011;5819;49.648;8.330;2022-07-29T02:39:48;6.45;;;1.90;;
11524;SDS011;5819;49.648;8.330;2022-07-29T02:42:19;4.00;;;1.90;;
11524;SDS011;5819;49.648;8.330;2022-07-29T02:44:52;6.05;;;2.22;;
11524;SDS011;5819;49.648;8.330;2022-07-29T02:47:21;4.18;;;1.88;;
11524;SDS011;5819;49.648;8.330;2022-07-29T02:49:53;5.72;;;1.90;;
11524;SDS011;5819;49.648;8.330;2022-07-29T02:52:26;6.43;;;1.92;;
11524;SDS011;5819;49.648;8.330;2022-07-29T02:55:00;9.90;;;2.03;;
11524;SDS011;5819;49.648;8.330;2022-07-29T02:57:32;3.33;;;1.70;;
11524;SDS011;5819;49.648;8.330;2022-07-29T03:00:22;5.75;;;2.10;;
11524;SDS011;5819;49.648;8.330;2022-07-29T03:02:55;2.95;;;2.00;;
11524;SDS011;5819;49.648;8.330;2022-07-29T03:05:26;5.90;;;2.05;;
11524;SDS011;5819;49.648;8.330;2022-07-29T03:07:55;5.35;;;1.92;;
11524;SDS011;5819;49.648;8.330;2022-07-29T03:10:26;3.90;;;1.90;;
11524;SDS011;5819;49.648;8.330;2022-07-29T03:12:55;3.33;;;2.10;;
11524;SDS011;5819;49.648;8.330;2022-07-29T03:15:25;4.45;;;1.98;;
11524;SDS011;5819;49.648;8.330;2022-07-29T03:17:54;7.95;;;2.10;;
11524;SDS011;5819;49.648;8.330;2022-07-29T03:20:23;5.65;;;2.42;;
11524;SDS011;5819;49.648;8.330;2022-07-29T03:22:51;3.50;;;1.77;;
11524;SDS011;5819;49.648;8.330;2022-07-29T03:25:19;5.30;;;2.10;;
11524;SDS011;5819;49.648;8.330;2022-07-29T03:27:48;4.70;;;2.10;;
11524;SDS011;5819;49.648;8.330;2022-07-29T03:30:16;8.95;;;2.25;;
11524;SDS011;5819;49.648;8.330;2022-07-29T03:32:49;5.05;;;2.20;;
11524;SDS011;5819;49.648;8.330;2022-07-29T03:35:18;2.55;;;1.80;;
11524;SDS011;5819;49.648;8.330;2022-07-29T03:37:46;4.60;;;1.92;;
11524;SDS011;5819;49.648;8.330;2022-07-29T03:40:16;6.65;;;2.15;;
11524;SDS011;5819;49.648;8.330;2022-07-29T03:42:47;5.30;;;1.90;;
11524;SDS011;5819;49.648;8.330;2022-07-29T03:45:19;4.10;;;2.00;;
11524;SDS011;5819;49.648;8.330;2022-07-29T03:47:51;5.85;;;2.42;;
11524;SDS011;5819;49.648;8.330;2022-07-29T03:50:26;4.18;;;2.80;;
11524;SDS011;5819;49.648;8.330;2022-07-29T03:52:56;3.42;;;1.98;;
11524;SDS011;5819;49.648;8.330;2022-07-29T03:55:25;4.10;;;2.40;;
11524;SDS011;5819;49.648;8.330;2022-07-29T03:57:55;7.13;;;2.47;;
11524;SDS011;5819;49.648;8.330;2022-07-29T04:00:25;7.18;;;2.15;;
11524;SDS011;5819;49.648;8.330;2022-07-29T04:02:56;6.00;;;2.33;;
11524;SDS011;5819;49.648;8.330;2022-07-29T04:05:24;3.10;;;2.10;;
11524;SDS011;5819;49.648;8.330;2022-07-29T04:07:52;3.97;;;2.63;;
11524;SDS011;5819;49.648;8.330;2022-07-29T04:10:20;3.47;;;2.33;;
11524;SDS011;5819;49.648;8.330;2022-07-29T04:12:56;3.72;;;2.30;;
11524;SDS011;5819;49.648;8.330;2022-07-29T04:15:24;4.38;;;2.45;;
11524;SDS011;5819;49.648;8.330;2022-07-29T04:17:58;6.85;;;2.38;;
11524;SDS011;5819;49.648;8.330;2022-07-29T04:20:26;6.75;;;2.47;;
11524;SDS011;5819;49.648;8.330;2022-07-29T04:22:54;10.45;;;2.60;;
11524;SDS011;5819;49.648;8.330;2022-07-29T04:25:22;4.85;;;2.40;;
11524;SDS011;5819;49.648;8.330;2022-07-29T04:27:50;6.60;;;2.30;;
11524;SDS011;5819;49.648;8.330;2022-07-29T04:30:27;3.70;;;2.20;;
11524;SDS011;5819;49.648;8.330;2022-07-29T04:32:57;5.45;;;2.20;;
11524;SDS011;5819;49.648;8.330;2022-07-29T04:35:27;5.93;;;2.70;;
11524;SDS011;5819;49.648;8.330;2022-07-29T04:37:55;6.15;;;2.42;;
11524;SDS011;5819;49.648;8.330;2022-07-29T04:40:23;6.85;;;2.40;;
11524;SDS011;5819;49.648;8.330;2022-07-29T04:42:51;4.72;;;2.30;;
11524;SDS011;5819;49.648;8.330;2022-07-29T04:45:19;7.95;;;2.63;;
11524;SDS011;5819;49.648;8.330;2022-07-29T04:47:48;5.40;;;2.45;;
11524;SDS011;5819;49.648;8.330;2022-07-29T04:50:17;6.40;;;2.70;;
11524;SDS011;5819;49.648;8.330;2022-07-29T04:52:45;6.32;;;2.53;;
11524;SDS011;5819;49.648;8.330;2022-07-29T04:55:13;7.75;;;2.58;;
11524;SDS011;5819;49.648;8.330;2022-07-29T04:57:41;6.50;;;2.42;;
11524;SDS011;5819;49.648;8.330;2022-07-29T05:00:10;5.32;;;2.70;;
11524;SDS011;5819;49.648;8.330;2022-07-29T05:02:38;5.30;;;2.70;;
11524;SDS011;5819;49.648;8.330;2022-07-29T05:05:07;3.85;;;2.33;;
11524;SDS011;5819;49.648;8.330;2022-07-29T05:07:37;5.97;;;3.15;;
11524;SDS011;5819;49.648;8.330;2022-07-29T05:10:05;6.50;;;2.80;;
11524;SDS011;5819;49.648;8.330;2022-07-29T05:12:33;7.38;;;2.92;;
11524;SDS011;5819;49.648;8.330;2022-07-29T05:15:01;5.88;;;2.60;;
11524;SDS011;5819;49.648;8.330;2022-07-29T05:17:30;6.20;;;2.50;;
11524;SDS011;5819;49.648;8.330;2022-07-29T05:19:58;5.05;;;2.75;;
11524;SDS011;5819;49.648;8.330;2022-07-29T05:22:26;4.85;;;2.78;;
11524;SDS011;5819;49.648;8.330;2022-07-29T05:24:55;4.65;;;2.78;;
11524;SDS011;5819;49.648;8.330;2022-07-29T05:27:24;6.13;;;2.70;;
11524;SDS011;5819;49.648;8.330;2022-07-29T05:29:52;7.65;;;2.70;;
11524;SDS011;5819;49.648;8.330;2022-07-29T05:32:19;7.43;;;2.58;;
11524;SDS011;5819;49.648;8.330;2022-07-29T05:34:47;5.97;;;2.33;;
11524;SDS011;5819;49.648;8.330;2022-07-29T05:37:18;8.75;;;2.40;;
11524;SDS011;5819;49.648;8.330;2022-07-29T05:39:46;7.00;;;2.70;;
11524;SDS011;5819;49.648;8.330;2022-07-29T05:42:24;7.70;;;3.00;;
11524;SDS011;5819;49.648;8.330;2022-07-29T05:44:53;6.78;;;2.55;;
11524;SDS011;5819;49.648;8.330;2022-07-29T05:47:21;7.82;;;3.15;;
11524;SDS011;5819;49.648;8.330;2022-07-29T05:49:49;4.10;;;2.60;;
11524;SDS011;5819;49.648;8.330;2022-07-29T05:52:17;6.53;;;2.88;;
11524;SDS011;5819;49.648;8.330;2022-07-29T05:54:46;8.52;;;3.00;;
11524;SDS011;5819;49.648;8.330;2022-07-29T05:57:15;9.85;;;2.78;;
11524;SDS011;5819;49.648;8.330;2022-07-29T05:59:45;4.85;;;2.65;;
11524;SDS011;5819;49.648;8.330;2022-07-29T06:02:13;14.63;;;3.28;;
11524;SDS011;5819;49.648;8.330;2022-07-29T06:04:42;7.15;;;3.30;;
11524;SDS011;5819;49.648;8.330;2022-07-29T06:07:11;8.10;;;3.03;;
11524;SDS011;5819;49.648;8.330;2022-07-29T06:09:39;9.65;;;2.90;;
11524;SDS011;5819;49.648;8.330;2022-07-29T06:12:07;6.03;;;2.95;;
11524;SDS011;5819;49.648;8.330;2022-07-29T06:14:36;8.05;;;3.05;;
11524;SDS011;5819;49.648;8.330;2022-07-29T06:17:07;6.18;;;2.75;;
11524;SDS011;5819;49.648;8.330;2022-07-29T06:19:35;4.85;;;2.53;;
11524;SDS011;5819;49.648;8.330;2022-07-29T06:22:04;7.35;;;3.00;;
11524;SDS011;5819;49.648;8.330;2022-07-29T06:24:32;6.72;;;2.80;;
11524;SDS011;5819;49.648;8.330;2022-07-29T06:27:00;16.48;;;3.15;;
11524;SDS011;5819;49.648;8.330;2022-07-29T06:29:28;4.68;;;2.55;;
11524;SDS011;5819;49.648;8.330;2022-07-29T06:31:56;9.00;;;2.92;;
11524;SDS011;5819;49.648;8.330;2022-07-29T06:34:25;6.80;;;3.00;;
11524;SDS011;5819;49.648;8.330;2022-07-29T06:36:53;13.60;;;3.38;;
11524;SDS011;5819;49.648;8.330;2022-07-29T06:39:21;8.05;;;2.67;;
11524;SDS011;5819;49.648;8.330;2022-07-29T06:41:49;7.85;;;2.38;;
11524;SDS011;5819;49.648;8.330;2022-07-29T06:44:23;11.07;;;3.20;;
11524;SDS011;5819;49.648;8.330;2022-07-29T06:46:51;16.83;;;3.35;;
11524;SDS011;5819;49.648;8.330;2022-07-29T06:49:21;9.27;;;2.80;;
11524;SDS011;5819;49.648;8.330;2022-07-29T06:51:51;7.07;;;2.75;;
11524;SDS011;5819;49.648;8.330;2022-07-29T06:54:19;4.82;;;2.80;;
11524;SDS011;5819;49.648;8.330;2022-07-29T06:56:48;10.27;;;2.90;;
11524;SDS011;5819;49.648;8.330;2022-07-29T06:59:16;5.80;;;3.17;;
11524;SDS011;5819;49.648;8.330;2022-07-29T07:01:45;4.03;;;2.88;;
11524;SDS011;5819;49.648;8.330;2022-07-29T07:04:13;4.43;;;2.75;;
11524;SDS011;5819;49.648;8.330;2022-07-29T07:06:42;6.95;;;2.92;;
11524;SDS011;5819;49.648;8.330;2022-07-29T07:09:13;5.10;;;2.78;;
11524;SDS011;5819;49.648;8.330;2022-07-29T07:11:41;5.78;;;2.78;;
11524;SDS011;5819;49.648;8.330;2022-07-29T07:14:15;7.13;;;3.22;;
11524;SDS011;5819;49.648;8.330;2022-07-29T07:16:47;7.20;;;2.67;;
11524;SDS011;5819;49.648;8.330;2022-07-29T07:19:18;3.97;;;2.83;;
11524;SDS011;5819;49.648;8.330;2022-07-29T07:21:46;9.00;;;3.00;;
11524;SDS011;5819;49.648;8.330;2022-07-29T07:24:16;13.15;;;3.55;;
11524;SDS011;5819;49.648;8.330;2022-07-29T07:26:45;7.65;;;3.22;;
11524;SDS011;5819;49.648;8.330;2022-07-29T07:29:13;4.47;;;2.72;;
11524;SDS011;5819;49.648;8.330;2022-07-29T07:31:41;6.57;;;2.83;;
11524;SDS011;5819;49.648;8.330;2022-07-29T07:34:09;5.70;;;3.30;;
11524;SDS011;5819;49.648;8.330;2022-07-29T07:36:37;13.00;;;2.92;;
11524;SDS011;5819;49.648;8.330;2022-07-29T07:39:05;4.35;;;2.70;;
11524;SDS011;5819;49.648;8.330;2022-07-29T07:41:35;6.18;;;3.03;;
11524;SDS011;5819;49.648;8.330;2022-07-29T07:44:03;12.95;;;3.42;;
11524;SDS011;5819;49.648;8.330;2022-07-29T07:46:32;7.57;;;3.28;;
11524;SDS011;5819;49.648;8.330;2022-07-29T07:49:00;5.90;;;3.25;;
11524;SDS011;5819;49.648;8.330;2022-07-29T07:51:29;6.13;;;3.30;;
11524;SDS011;5819;49.648;8.330;2022-07-29T07:53:57;6.60;;;3.38;;
11524;SDS011;5819;49.648;8.330;2022-07-29T07:56:28;5.95;;;3.40;;
11524;SDS011;5819;49.648;8.330;2022-07-29T07:59:02;6.65;;;3.10;;
11524;SDS011;5819;49.648;8.330;2022-07-29T08:01:30;11.15;;;3.97;;
11524;SDS011;5819;49.648;8.330;2022-07-29T08:04:19;7.10;;;3.22;;
11524;SDS011;5819;49.648;8.330;2022-07-29T08:06:53;5.10;;;3.65;;
11524;SDS011;5819;49.648;8.330;2022-07-29T08:09:22;8.65;;;7.05;;
11524;SDS011;5819;49.648;8.330;2022-07-29T08:11:55;15.48;;;12.10;;
11524;SDS011;5819;49.648;8.330;2022-07-29T08:14:25;6.35;;;4.07;;
11524;SDS011;5819;49.648;8.330;2022-07-29T08:16:53;21.52;;;6.00;;
11524;SDS011;5819;49.648;8.330;2022-07-29T08:19:21;27.13;;;5.32;;
11524;SDS011;5819;49.648;8.330;2022-07-29T08:21:50;84.13;;;6.85;;
11524;SDS011;5819;49.648;8.330;2022-07-29T08:24:22;9.57;;;4.38;;
11524;SDS011;5819;49.648;8.330;2022-07-29T08:27:07;7.25;;;3.10;;
11524;SDS011;5819;49.648;8.330;2022-07-29T08:29:57;7.78;;;3.92;;
11524;SDS011;5819;49.648;8.330;2022-07-29T08:32:26;6.68;;;3.75;;
11524;SDS011;5819;49.648;8.330;2022-07-29T08:35:14;7.43;;;3.97;;
11524;SDS011;5819;49.648;8.330;2022-07-29T08:37:42;4.07;;;3.30;;
11524;SDS011;5819;49.648;8.330;2022-07-29T08:40:12;7.43;;;3.25;;
11524;SDS011;5819;49.648;8.330;2022-07-29T08:42:41;5.50;;;3.33;;
11524;SDS011;5819;49.648;8.330;2022-07-29T08:45:11;7.07;;;3.65;;
11524;SDS011;5819;49.648;8.330;2022-07-29T08:47:40;4.88;;;3.50;;
11524;SDS011;5819;49.648;8.330;2022-07-29T08:50:08;4.93;;;3.33;;
11524;SDS011;5819;49.648;8.330;2022-07-29T08:52:38;5.63;;;3.60;;
11524;SDS011;5819;49.648;8.330;2022-07-29T08:55:08;7.00;;;3.60;;
11524;SDS011;5819;49.648;8.330;2022-07-29T08:57:38;6.93;;;3.88;;
11524;SDS011;5819;49.648;8.330;2022-07-29T09:00:21;5.55;;;3.30;;
11524;SDS011;5819;49.648;8.330;2022-07-29T09:02:54;4.32;;;3.20;;
11524;SDS011;5819;49.648;8.330;2022-07-29T09:05:25;4.72;;;3.65;;
11524;SDS011;5819;49.648;8.330;2022-07-29T09:07:54;5.15;;;3.78;;
11524;SDS011;5819;49.648;8.330;2022-07-29T09:10:22;8.65;;;3.67;;
11524;SDS011;5819;49.648;8.330;2022-07-29T09:12:50;7.10;;;4.10;;
11524;SDS011;5819;49.648;8.330;2022-07-29T09:15:18;4.97;;;3.55;;
11524;SDS011;5819;49.648;8.330;2022-07-29T09:17:49;8.70;;;3.58;;
11524;SDS011;5819;49.648;8.330;2022-07-29T09:20:22;4.28;;;3.85;;
11524;SDS011;5819;49.648;8.330;2022-07-29T09:22:50;8.60;;;4.18;;
11524;SDS011;5819;49.648;8.330;2022-07-29T09:25:32;6.40;;;4.38;;
11524;SDS011;5819;49.648;8.330;2022-07-29T09:28:07;7.35;;;3.60;;
11524;SDS011;5819;49.648;8.330;2022-07-29T09:30:41;6.13;;;3.95;;
11524;SDS011;5819;49.648;8.330;2022-07-29T09:33:17;4.53;;;3.85;;
11524;SDS011;5819;49.648;8.330;2022-07-29T09:35:46;9.27;;;5.53;;
11524;SDS011;5819;49.648;8.330;2022-07-29T09:38:27;9.95;;;6.63;;
11524;SDS011;5819;49.648;8.330;2022-07-29T09:40:56;7.88;;;4.22;;
11524;SDS011;5819;49.648;8.330;2022-07-29T09:43:31;5.22;;;4.68;;
11524;SDS011;5819;49.648;8.330;2022-07-29T09:46:10;4.90;;;3.70;;
11524;SDS011;5819;49.648;8.330;2022-07-29T09:48:39;6.28;;;3.60;;
11524;SDS011;5819;49.648;8.330;2022-07-29T09:51:16;4.63;;;3.72;;
11524;SDS011;5819;49.648;8.330;2022-07-29T09:53:52;4.25;;;3.25;;
11524;SDS011;5819;49.648;8.330;2022-07-29T09:56:20;6.97;;;3.78;;
11524;SDS011;5819;49.648;8.330;2022-07-29T09:59:07;8.85;;;3.92;;
11524;SDS011;5819;49.648;8.330;2022-07-29T10:01:38;4.40;;;3.35;;
11524;SDS011;5819;49.648;8.330;2022-07-29T10:04:07;7.63;;;3.72;;
11524;SDS011;5819;49.648;8.330;2022-07-29T10:06:36;5.22;;;3.53;;
11524;SDS011;5819;49.648;8.330;2022-07-29T10:09:30;8.30;;;4.03;;
11524;SDS011;5819;49.648;8.330;2022-07-29T10:12:02;4.85;;;2.78;;
11524;SDS011;5819;49.648;8.330;2022-07-29T10:14:35;6.53;;;3.40;;
11524;SDS011;5819;49.648;8.330;2022-07-29T10:17:05;3.38;;;3.08;;
11524;SDS011;5819;49.648;8.330;2022-07-29T10:19:35;6.88;;;3.53;;
11524;SDS011;5819;49.648;8.330;2022-07-29T10:22:04;4.25;;;3.53;;
11524;SDS011;5819;49.648;8.330;2022-07-29T10:24:34;5.40;;;3.58;;
11524;SDS011;5819;49.648;8.330;2022-07-29T10:27:04;4.85;;;2.90;;
11524;SDS011;5819;49.648;8.330;2022-07-29T10:29:34;4.63;;;3.67;;
11524;SDS011;5819;49.648;8.330;2022-07-29T10:32:13;4.15;;;3.53;;
11524;SDS011;5819;49.648;8.330;2022-07-29T10:35:03;5.03;;;3.17;;
11524;SDS011;5819;49.648;8.330;2022-07-29T10:37:44;5.30;;;3.30;;
11524;SDS011;5819;49.648;8.330;2022-07-29T10:40:26;5.07;;;3.03;;
11524;SDS011;5819;49.648;8.330;2022-07-29T10:43:21;4.78;;;3.20;;
11524;SDS011;5819;49.648;8.330;2022-07-29T10:46:15;7.22;;;3.22;;
11524;SDS011;5819;49.648;8.330;2022-07-29T10:51:57;4.85;;;3.40;;
11524;SDS011;5819;49.648;8.330;2022-07-29T10:54:37;5.07;;;3.47;;
11524;SDS011;5819;49.648;8.330;2022-07-29T10:57:12;5.40;;;2.95;;
11524;SDS011;5819;49.648;8.330;2022-07-29T10:59:42;7.72;;;2.88;;
11524;SDS011;5819;49.648;8.330;2022-07-29T11:05:23;3.95;;;2.80;;
11524;SDS011;5819;49.648;8.330;2022-07-29T11:08:18;4.25;;;3.05;;
11524;SDS011;5819;49.648;8.330;2022-07-29T11:14:00;4.55;;;3.10;;
11524;SDS011;5819;49.648;8.330;2022-07-29T11:16:58;5.30;;;3.22;;
11524;SDS011;5819;49.648;8.330;2022-07-29T11:19:32;8.05;;;3.28;;
11524;SDS011;5819;49.648;8.330;2022-07-29T11:22:08;5.78;;;3.22;;
11524;SDS011;5819;49.648;8.330;2022-07-29T11:24:42;6.38;;;3.63;;
11524;SDS011;5819;49.648;8.330;2022-07-29T11:27:16;7.55;;;3.30;;
11524;SDS011;5819;49.648;8.330;2022-07-29T11:29:50;4.00;;;2.90;;
11524;SDS011;5819;49.648;8.330;2022-07-29T11:32:22;4.47;;;2.75;;
11524;SDS011;5819;49.648;8.330;2022-07-29T11:43:53;6.93;;;3.17;;
11524;SDS011;5819;49.648;8.330;2022-07-29T11:49:12;3.90;;;3.05;;
11524;SDS011;5819;49.648;8.330;2022-07-29T11:51:50;5.95;;;3.13;;
11524;SDS011;5819;49.648;8.330;2022-07-29T11:54:23;4.82;;;3.03;;
11524;SDS011;5819;49.648;8.330;2022-07-29T11:56:53;7.28;;;3.20;;
11524;SDS011;5819;49.648;8.330;2022-07-29T11:59:22;5.22;;;3.05;;
11524;SDS011;5819;49.648;8.330;2022-07-29T12:02:00;6.93;;;3.58;;
11524;SDS011;5819;49.648;8.330;2022-07-29T12:04:49;5.28;;;3.20;;
11524;SDS011;5819;49.648;8.330;2022-07-29T12:07:17;5.20;;;3.35;;
11524;SDS011;5819;49.648;8.330;2022-07-29T12:09:51;4.15;;;3.05;;
11524;SDS011;5819;49.648;8.330;2022-07-29T12:12:22;5.60;;;3.25;;
11524;SDS011;5819;49.648;8.330;2022-07-29T12:14:50;6.63;;;3.60;;
11524;SDS011;5819;49.648;8.330;2022-07-29T12:17:27;9.30;;;3.53;;
11524;SDS011;5819;49.648;8.330;2022-07-29T12:19:58;3.97;;;3.10;;
11524;SDS011;5819;49.648;8.330;2022-07-29T12:22:29;4.60;;;3.53;;
11524;SDS011;5819;49.648;8.330;2022-07-29T12:25:02;7.40;;;3.67;;
11524;SDS011;5819;49.648;8.330;2022-07-29T12:27:57;5.72;;;3.50;;
11524;SDS011;5819;49.648;8.330;2022-07-29T12:30:37;5.50;;;3.55;;
11524;SDS011;5819;49.648;8.330;2022-07-29T12:33:11;8.32;;;3.45;;
11524;SDS011;5819;49.648;8.330;2022-07-29T12:35:44;4.05;;;2.67;;
11524;SDS011;5819;49.648;8.330;2022-07-29T12:38:32;5.35;;;3.08;;
11524;SDS011;5819;49.648;8.330;2022-07-29T12:41:03;5.93;;;3.42;;
11524;SDS011;5819;49.648;8.330;2022-07-29T12:43:32;4.35;;;3.00;;
11524;SDS011;5819;49.648;8.330;2022-07-29T12:46:11;6.00;;;3.22;;
11524;SDS011;5819;49.648;8.330;2022-07-29T12:48:42;5.10;;;3.47;;
11524;SDS011;5819;49.648;8.330;2022-07-29T12:51:11;3.33;;;3.05;;
11524;SDS011;5819;49.648;8.330;2022-07-29T12:53:41;5.75;;;3.53;;
11524;SDS011;5819;49.648;8.330;2022-07-29T12:56:16;4.05;;;3.50;;
11524;SDS011;5819;49.648;8.330;2022-07-29T12:59:16;3.17;;;2.60;;
11524;SDS011;5819;49.648;8.330;2022-07-29T13:01:45;4.45;;;3.20;;
11524;SDS011;5819;49.648;8.330;2022-07-29T13:04:25;4.78;;;2.83;;
11524;SDS011;5819;49.648;8.330;2022-07-29T13:06:58;3.58;;;3.08;;
11524;SDS011;5819;49.648;8.330;2022-07-29T13:09:36;4.00;;;2.83;;
11524;SDS011;5819;49.648;8.330;2022-07-29T13:12:09;20.00;;;17.80;;
11524;SDS011;5819;49.648;8.330;2022-07-29T13:14:40;16.92;;;15.10;;
11524;SDS011;5819;49.648;8.330;2022-07-29T13:17:11;4.70;;;3.47;;
11524;SDS011;5819;49.648;8.330;2022-07-29T13:19:43;3.60;;;3.00;;
11524;SDS011;5819;49.648;8.330;2022-07-29T13:22:12;3.33;;;3.03;;
11524;SDS011;5819;49.648;8.330;2022-07-29T13:24:45;3.78;;;3.20;;
11524;SDS011;5819;49.648;8.330;2022-07-29T13:27:18;6.70;;;3.20;;
11524;SDS011;5819;49.648;8.330;2022-07-29T13:29:48;4.63;;;3.30;;
11524;SDS011;5819;49.648;8.330;2022-07-29T13:32:18;8.35;;;3.08;;
11524;SDS011;5819;49.648;8.330;2022-07-29T13:34:54;4.30;;;3.33;;
11524;SDS011;5819;49.648;8.330;2022-07-29T13:37:22;3.75;;;3.17;;
11524;SDS011;5819;49.648;8.330;2022-07-29T13:39:56;4.47;;;3.17;;
11524;SDS011;5819;49.648;8.330;2022-07-29T13:42:27;4.93;;;2.90;;
11524;SDS011;5819;49.648;8.330;2022-07-29T13:44:55;5.22;;;3.13;;
11524;SDS011;5819;49.648;8.330;2022-07-29T13:47:23;5.68;;;3.10;;
11524;SDS011;5819;49.648;8.330;2022-07-29T13:49:58;3.85;;;2.88;;
11524;SDS011;5819;49.648;8.330;2022-07-29T13:52:26;4.07;;;3.42;;
11524;SDS011;5819;49.648;8.330;2022-07-29T13:54:54;3.15;;;2.63;;
11524;SDS011;5819;49.648;8.330;2022-07-29T13:57:23;5.28;;;3.00;;
11524;SDS011;5819;49.648;8.330;2022-07-29T13:59:53;3.83;;;3.00;;
11524;SDS011;5819;49.648;8.330;2022-07-29T14:02:21;5.57;;;3.05;;
11524;SDS011;5819;49.648;8.330;2022-07-29T14:04:51;5.63;;;3.38;;
11524;SDS011;5819;49.648;8.330;2022-07-29T14:07:20;6.07;;;2.97;;
11524;SDS011;5819;49.648;8.330;2022-07-29T14:09:48;3.40;;;3.10;;
11524;SDS011;5819;49.648;8.330;2022-07-29T14:12:16;4.82;;;3.20;;
11524;SDS011;5819;49.648;8.330;2022-07-29T14:14:45;4.88;;;3.20;;
11524;SDS011;5819;49.648;8.330;2022-07-29T14:17:14;4.60;;;2.90;;
11524;SDS011;5819;49.648;8.330;2022-07-29T14:19:43;4.43;;;3.30;;
11524;SDS011;5819;49.648;8.330;2022-07-29T14:22:11;5.57;;;3.47;;
11524;SDS011;5819;49.648;8.330;2022-07-29T14:24:39;6.60;;;3.30;;
11524;SDS011;5819;49.648;8.330;2022-07-29T14:27:08;4.53;;;3.20;;
11524;SDS011;5819;49.648;8.330;2022-07-29T14:29:37;6.55;;;2.90;;
11524;SDS011;5819;49.648;8.330;2022-07-29T14:32:06;3.10;;;2.80;;
11524;SDS011;5819;49.648;8.330;2022-07-29T14:34:38;4.22;;;2.97;;
11524;SDS011;5819;49.648;8.330;2022-07-29T14:37:06;4.13;;;3.00;;
11524;SDS011;5819;49.648;8.330;2022-07-29T14:39:44;3.75;;;2.90;;
11524;SDS011;5819;49.648;8.330;2022-07-29T14:42:11;3.22;;;2.92;;
11524;SDS011;5819;49.648;8.330;2022-07-29T14:44:43;3.88;;;3.20;;
11524;SDS011;5819;49.648;8.330;2022-07-29T14:47:12;6.20;;;3.53;;
11524;SDS011;5819;49.648;8.330;2022-07-29T14:49:41;6.53;;;3.20;;
11524;SDS011;5819;49.648;8.330;2022-07-29T14:52:10;3.78;;;2.75;;
11524;SDS011;5819;49.648;8.330;2022-07-29T14:54:38;5.97;;;2.85;;
11524;SDS011;5819;49.648;8.330;2022-07-29T14:57:06;6.38;;;3.17;;
11524;SDS011;5819;49.648;8.330;2022-07-29T14:59:35;3.38;;;2.75;;
11524;SDS011;5819;49.648;8.330;2022-07-29T15:02:03;3.70;;;2.72;;
11524;SDS011;5819;49.648;8.330;2022-07-29T15:04:31;3.33;;;3.03;;
11524;SDS011;5819;49.648;8.330;2022-07-29T15:07:01;4.75;;;2.80;;
11524;SDS011;5819;49.648;8.330;2022-07-29T15:09:30;6.72;;;2.80;;
11524;SDS011;5819;49.648;8.330;2022-07-29T15:12:01;5.75;;;3.20;;
11524;SDS011;5819;49.648;8.330;2022-07-29T15:14:31;6.65;;;2.83;;
11524;SDS011;5819;49.648;8.330;2022-07-29T15:16:59;3.63;;;3.08;;
11524;SDS011;5819;49.648;8.330;2022-07-29T15:19:30;3.25;;;2.80;;
11524;SDS011;5819;49.648;8.330;2022-07-29T15:21:58;7.78;;;3.08;;
11524;SDS011;5819;49.648;8.330;2022-07-29T15:24:29;2.90;;;2.45;;
11524;SDS011;5819;49.648;8.330;2022-07-29T15:26:58;5.53;;;2.70;;
11524;SDS011;5819;49.648;8.330;2022-07-29T15:29:26;6.32;;;3.30;;
11524;SDS011;5819;49.648;8.330;2022-07-29T15:31:54;3.83;;;2.35;;
11524;SDS011;5819;49.648;8.330;2022-07-29T15:34:22;3.72;;;2.58;;
11524;SDS011;5819;49.648;8.330;2022-07-29T15:36:50;3.50;;;2.92;;
11524;SDS011;5819;49.648;8.330;2022-07-29T15:39:21;5.35;;;2.83;;
11524;SDS011;5819;49.648;8.330;2022-07-29T15:41:49;3.33;;;2.90;;
11524;SDS011;5819;49.648;8.330;2022-07-29T15:44:18;5.75;;;2.70;;
11524;SDS011;5819;49.648;8.330;2022-07-29T15:46:46;5.18;;;2.50;;